sensor_id;sensor_type;location;lat;lon;timestamp;temperature;humidity
6270;DHT22;3168;51.684;6.954;2023-04-07T00:01:06;7.90;99.70
6270;DHT22;3168;51.684;6.954;2023-04-07T00:03:32;7.90;99.90
6270;DHT22;3168;51.684;6.954;2023-04-07T00:05:58;7.90;99.90
6270;DHT22;3168;51.684;6.954;2023-04-07T00:08:24;7.90;99.90
6270;DHT22;3168;51.684;6.954;2023-04-07T00:10:49;7.90;99.90
6270;DHT22;3168;51.684;6.954;2023-04-07T00:13:15;8.00;99.90
6270;DHT22;3168;51.684;6.954;2023-04-07T00:15:41;8.00;99.90
6270;DHT22;3168;51.684;6.954;2023-04-07T00:18:07;8.00;99.90
6270;DHT22;3168;51.684;6.954;2023-04-07T00:20:33;8.00;99.90
6270;DHT22;3168;51.684;6.954;2023-04-07T00:22:58;8.00;99.90
6270;DHT22;3168;51.684;6.954;2023-04-07T00:25:24;8.00;99.90
6270;DHT22;3168;51.684;6.954;2023-04-07T00:27:50;8.00;99.90
6270;DHT22;3168;51.684;6.954;2023-04-07T00:30:16;8.00;99.90
6270;DHT22;3168;51.684;6.954;2023-04-07T00:32:42;7.90;99.90
6270;DHT22;3168;51.684;6.954;2023-04-07T00:35:08;8.00;99.90
6270;DHT22;3168;51.684;6.954;2023-04-07T00:37:34;7.90;99.90
6270;DHT22;3168;51.684;6.954;2023-04-07T00:40:00;8.00;99.90
6270;DHT22;3168;51.684;6.954;2023-04-07T00:42:26;8.10;99.90
6270;DHT22;3168;51.684;6.954;2023-04-07T00:44:51;7.90;99.90
6270;DHT22;3168;51.684;6.954;2023-04-07T00:47:17;8.00;99.90
6270;DHT22;3168;51.684;6.954;2023-04-07T00:49:43;8.00;99.90
6270;DHT22;3168;51.684;6.954;2023-04-07T00:52:09;8.10;99.90
6270;DHT22;3168;51.684;6.954;2023-04-07T00:54:35;8.00;99.90
6270;DHT22;3168;51.684;6.954;2023-04-07T00:57:00;8.10;99.90
6270;DHT22;3168;51.684;6.954;2023-04-07T00:59:26;8.00;99.90
6270;DHT22;3168;51.684;6.954;2023-04-07T01:01:57;8.10;99.90
6270;DHT22;3168;51.684;6.954;2023-04-07T01:04:38;8.10;99.90
6270;DHT22;3168;51.684;6.954;2023-04-07T01:07:05;8.10;99.90
6270;DHT22;3168;51.684;6.954;2023-04-07T01:09:40;8.10;99.90
6270;DHT22;3168;51.684;6.954;2023-04-07T01:12:07;8.00;99.90
6270;DHT22;3168;51.684;6.954;2023-04-07T01:14:31;7.90;99.90
6270;DHT22;3168;51.684;6.954;2023-04-07T01:16:56;8.10;99.90
6270;DHT22;3168;51.684;6.954;2023-04-07T01:19:37;8.00;99.90
6270;DHT22;3168;51.684;6.954;2023-04-07T01:22:02;8.00;99.90
6270;DHT22;3168;51.684;6.954;2023-04-07T01:24:35;8.10;99.90
6270;DHT22;3168;51.684;6.954;2023-04-07T01:26:59;8.20;99.90
6270;DHT22;3168;51.684;6.954;2023-04-07T01:29:33;8.10;99.90
6270;DHT22;3168;51.684;6.954;2023-04-07T01:31:59;8.10;99.90
6270;DHT22;3168;51.684;6.954;2023-04-07T01:34:24;8.10;99.90
6270;DHT22;3168;51.684;6.954;2023-04-07T01:36:50;8.20;99.90
6270;DHT22;3168;51.684;6.954;2023-04-07T01:39:16;8.40;99.90
6270;DHT22;3168;51.684;6.954;2023-04-07T01:41:42;8.40;99.90
6270;DHT22;3168;51.684;6.954;2023-04-07T01:44:08;8.50;99.90
6270;DHT22;3168;51.684;6.954;2023-04-07T01:46:34;8.40;99.90
6270;DHT22;3168;51.684;6.954;2023-04-07T01:48:59;8.40;99.80
6270;DHT22;3168;51.684;6.954;2023-04-07T01:51:25;8.50;99.90
6270;DHT22;3168;51.684;6.954;2023-04-07T01:53:51;8.50;98.00
6270;DHT22;3168;51.684;6.954;2023-04-07T01:56:17;8.50;97.50
6270;DHT22;3168;51.684;6.954;2023-04-07T01:58:43;8.50;96.60
6270;DHT22;3168;51.684;6.954;2023-04-07T02:01:09;8.50;94.30
6270;DHT22;3168;51.684;6.954;2023-04-07T02:04:19;8.60;95.20
6270;DHT22;3168;51.684;6.954;2023-04-07T02:06:26;8.60;94.50
6270;DHT22;3168;51.684;6.954;2023-04-07T02:08:51;8.60;92.00
6270;DHT22;3168;51.684;6.954;2023-04-07T02:11:16;8.40;87.70
6270;DHT22;3168;51.684;6.954;2023-04-07T02:13:42;8.30;87.00
6270;DHT22;3168;51.684;6.954;2023-04-07T02:16:07;8.40;91.10
6270;DHT22;3168;51.684;6.954;2023-04-07T02:18:33;8.40;87.90
6270;DHT22;3168;51.684;6.954;2023-04-07T02:20:59;8.40;88.80
6270;DHT22;3168;51.684;6.954;2023-04-07T02:23:25;8.30;87.40
6270;DHT22;3168;51.684;6.954;2023-04-07T02:25:51;8.30;89.00
6270;DHT22;3168;51.684;6.954;2023-04-07T02:28:17;8.30;90.00
6270;DHT22;3168;51.684;6.954;2023-04-07T02:30:42;8.20;88.50
6270;DHT22;3168;51.684;6.954;2023-04-07T02:33:08;8.30;90.30
6270;DHT22;3168;51.684;6.954;2023-04-07T02:35:34;8.40;92.40
6270;DHT22;3168;51.684;6.954;2023-04-07T02:38:00;8.30;90.50
6270;DHT22;3168;51.684;6.954;2023-04-07T02:40:26;8.30;90.70
6270;DHT22;3168;51.684;6.954;2023-04-07T02:42:51;8.20;91.30
6270;DHT22;3168;51.684;6.954;2023-04-07T02:45:17;8.20;93.10
6270;DHT22;3168;51.684;6.954;2023-04-07T02:47:43;8.10;93.00
6270;DHT22;3168;51.684;6.954;2023-04-07T02:50:09;8.10;94.20
6270;DHT22;3168;51.684;6.954;2023-04-07T02:52:35;8.10;95.40
6270;DHT22;3168;51.684;6.954;2023-04-07T02:55:01;8.10;96.20
6270;DHT22;3168;51.684;6.954;2023-04-07T02:57:27;8.00;97.40
6270;DHT22;3168;51.684;6.954;2023-04-07T02:59:53;8.20;99.90
6270;DHT22;3168;51.684;6.954;2023-04-07T03:02:19;8.10;99.70
6270;DHT22;3168;51.684;6.954;2023-04-07T03:04:45;8.10;99.90
6270;DHT22;3168;51.684;6.954;2023-04-07T03:07:10;8.10;99.90
6270;DHT22;3168;51.684;6.954;2023-04-07T03:09:36;8.00;99.90
6270;DHT22;3168;51.684;6.954;2023-04-07T03:12:02;8.10;99.90
6270;DHT22;3168;51.684;6.954;2023-04-07T03:14:28;8.00;99.90
6270;DHT22;3168;51.684;6.954;2023-04-07T03:16:54;8.00;99.90
6270;DHT22;3168;51.684;6.954;2023-04-07T03:19:20;8.00;99.90
6270;DHT22;3168;51.684;6.954;2023-04-07T03:21:45;8.00;99.90
6270;DHT22;3168;51.684;6.954;2023-04-07T03:24:11;8.00;99.90
6270;DHT22;3168;51.684;6.954;2023-04-07T03:26:37;8.00;99.90
6270;DHT22;3168;51.684;6.954;2023-04-07T03:29:03;8.10;99.90
6270;DHT22;3168;51.684;6.954;2023-04-07T03:31:29;8.10;99.90
6270;DHT22;3168;51.684;6.954;2023-04-07T03:33:55;8.20;99.90
6270;DHT22;3168;51.684;6.954;2023-04-07T03:36:21;8.20;99.90
6270;DHT22;3168;51.684;6.954;2023-04-07T03:38:46;8.30;99.90
6270;DHT22;3168;51.684;6.954;2023-04-07T03:41:12;8.30;99.90
6270;DHT22;3168;51.684;6.954;2023-04-07T03:43:38;8.30;99.90
6270;DHT22;3168;51.684;6.954;2023-04-07T03:46:04;8.20;99.90
6270;DHT22;3168;51.684;6.954;2023-04-07T03:48:30;8.20;99.90
6270;DHT22;3168;51.684;6.954;2023-04-07T03:50:55;8.10;99.90
6270;DHT22;3168;51.684;6.954;2023-04-07T03:53:26;8.10;99.90
6270;DHT22;3168;51.684;6.954;2023-04-07T03:55:54;8.30;99.90
6270;DHT22;3168;51.684;6.954;2023-04-07T03:58:20;8.30;99.90
6270;DHT22;3168;51.684;6.954;2023-04-07T04:00:46;8.10;99.90
6270;DHT22;3168;51.684;6.954;2023-04-07T04:03:12;8.20;99.90
6270;DHT22;3168;51.684;6.954;2023-04-07T04:05:38;8.20;99.90
6270;DHT22;3168;51.684;6.954;2023-04-07T04:08:04;8.20;99.90
6270;DHT22;3168;51.684;6.954;2023-04-07T04:10:30;8.40;99.90
6270;DHT22;3168;51.684;6.954;2023-04-07T04:12:57;8.50;99.90
6270;DHT22;3168;51.684;6.954;2023-04-07T04:15:23;8.50;99.90
6270;DHT22;3168;51.684;6.954;2023-04-07T04:17:49;8.40;99.90
6270;DHT22;3168;51.684;6.954;2023-04-07T04:20:14;8.60;99.90
6270;DHT22;3168;51.684;6.954;2023-04-07T04:22:40;8.50;99.90
6270;DHT22;3168;51.684;6.954;2023-04-07T04:25:06;8.60;99.90
6270;DHT22;3168;51.684;6.954;2023-04-07T04:27:32;8.40;99.90
6270;DHT22;3168;51.684;6.954;2023-04-07T04:29:58;8.60;99.90
6270;DHT22;3168;51.684;6.954;2023-04-07T04:32:24;8.60;99.90
6270;DHT22;3168;51.684;6.954;2023-04-07T04:34:50;8.30;99.90
6270;DHT22;3168;51.684;6.954;2023-04-07T04:37:16;8.40;99.90
6270;DHT22;3168;51.684;6.954;2023-04-07T04:39:41;8.50;99.90
6270;DHT22;3168;51.684;6.954;2023-04-07T04:42:07;8.50;99.90
6270;DHT22;3168;51.684;6.954;2023-04-07T04:44:33;8.30;99.90
6270;DHT22;3168;51.684;6.954;2023-04-07T04:46:59;8.30;99.90
6270;DHT22;3168;51.684;6.954;2023-04-07T04:49:25;8.50;99.90
6270;DHT22;3168;51.684;6.954;2023-04-07T04:51:51;8.30;99.90
6270;DHT22;3168;51.684;6.954;2023-04-07T04:54:17;8.50;99.90
6270;DHT22;3168;51.684;6.954;2023-04-07T04:56:42;8.40;99.80
6270;DHT22;3168;51.684;6.954;2023-04-07T04:59:08;8.30;97.70
6270;DHT22;3168;51.684;6.954;2023-04-07T05:01:34;8.30;98.00
6270;DHT22;3168;51.684;6.954;2023-04-07T05:04:00;8.40;97.80
6270;DHT22;3168;51.684;6.954;2023-04-07T05:06:26;8.40;97.30
6270;DHT22;3168;51.684;6.954;2023-04-07T05:08:52;8.40;95.90
6270;DHT22;3168;51.684;6.954;2023-04-07T05:11:18;8.30;94.20
6270;DHT22;3168;51.684;6.954;2023-04-07T05:13:44;8.30;93.00
6270;DHT22;3168;51.684;6.954;2023-04-07T05:16:10;8.30;92.80
6270;DHT22;3168;51.684;6.954;2023-04-07T05:18:36;8.30;92.80
6270;DHT22;3168;51.684;6.954;2023-04-07T05:21:02;8.30;92.50
6270;DHT22;3168;51.684;6.954;2023-04-07T05:23:28;8.30;94.10
6270;DHT22;3168;51.684;6.954;2023-04-07T05:25:54;8.10;92.30
6270;DHT22;3168;51.684;6.954;2023-04-07T05:28:19;8.20;94.90
6270;DHT22;3168;51.684;6.954;2023-04-07T05:30:45;8.20;97.70
6270;DHT22;3168;51.684;6.954;2023-04-07T05:33:11;8.10;96.30
6270;DHT22;3168;51.684;6.954;2023-04-07T05:35:37;8.10;98.40
6270;DHT22;3168;51.684;6.954;2023-04-07T05:38:03;8.20;99.90
6270;DHT22;3168;51.684;6.954;2023-04-07T05:40:29;8.20;99.60
6270;DHT22;3168;51.684;6.954;2023-04-07T05:42:56;8.20;99.90
6270;DHT22;3168;51.684;6.954;2023-04-07T05:45:22;8.30;99.80
6270;DHT22;3168;51.684;6.954;2023-04-07T05:47:47;8.20;99.80
6270;DHT22;3168;51.684;6.954;2023-04-07T05:50:13;8.30;99.90
6270;DHT22;3168;51.684;6.954;2023-04-07T05:52:39;8.20;99.80
6270;DHT22;3168;51.684;6.954;2023-04-07T05:55:05;8.30;99.90
6270;DHT22;3168;51.684;6.954;2023-04-07T05:57:31;8.20;99.90
6270;DHT22;3168;51.684;6.954;2023-04-07T05:59:57;8.20;99.50
6270;DHT22;3168;51.684;6.954;2023-04-07T06:02:23;8.20;99.90
6270;DHT22;3168;51.684;6.954;2023-04-07T06:04:49;8.20;99.90
6270;DHT22;3168;51.684;6.954;2023-04-07T06:07:14;8.10;99.90
6270;DHT22;3168;51.684;6.954;2023-04-07T06:09:40;8.20;99.90
6270;DHT22;3168;51.684;6.954;2023-04-07T06:12:06;8.10;99.90
6270;DHT22;3168;51.684;6.954;2023-04-07T06:14:32;8.00;99.90
6270;DHT22;3168;51.684;6.954;2023-04-07T06:16:58;8.10;99.90
6270;DHT22;3168;51.684;6.954;2023-04-07T06:19:24;8.00;99.90
6270;DHT22;3168;51.684;6.954;2023-04-07T06:21:49;8.10;99.90
6270;DHT22;3168;51.684;6.954;2023-04-07T06:24:15;8.10;99.90
6270;DHT22;3168;51.684;6.954;2023-04-07T06:26:41;8.00;99.90
6270;DHT22;3168;51.684;6.954;2023-04-07T06:29:07;7.90;99.90
6270;DHT22;3168;51.684;6.954;2023-04-07T06:31:33;8.10;99.90
6270;DHT22;3168;51.684;6.954;2023-04-07T06:33:59;8.10;99.90
6270;DHT22;3168;51.684;6.954;2023-04-07T06:36:26;8.10;99.90
6270;DHT22;3168;51.684;6.954;2023-04-07T06:38:51;8.10;99.90
6270;DHT22;3168;51.684;6.954;2023-04-07T06:41:17;8.20;99.90
6270;DHT22;3168;51.684;6.954;2023-04-07T06:43:45;8.20;99.90
6270;DHT22;3168;51.684;6.954;2023-04-07T06:46:09;8.30;99.90
6270;DHT22;3168;51.684;6.954;2023-04-07T06:48:35;8.40;99.90
6270;DHT22;3168;51.684;6.954;2023-04-07T06:51:00;8.40;99.90
6270;DHT22;3168;51.684;6.954;2023-04-07T06:53:26;8.30;99.90
6270;DHT22;3168;51.684;6.954;2023-04-07T06:56:01;8.40;99.90
6270;DHT22;3168;51.684;6.954;2023-04-07T06:58:18;8.40;99.90
6270;DHT22;3168;51.684;6.954;2023-04-07T07:00:44;8.10;99.90
6270;DHT22;3168;51.684;6.954;2023-04-07T07:03:10;8.10;99.90
6270;DHT22;3168;51.684;6.954;2023-04-07T07:05:36;8.10;99.90
6270;DHT22;3168;51.684;6.954;2023-04-07T07:08:02;8.20;99.90
6270;DHT22;3168;51.684;6.954;2023-04-07T07:10:28;8.10;99.90
6270;DHT22;3168;51.684;6.954;2023-04-07T07:12:53;8.10;99.90
6270;DHT22;3168;51.684;6.954;2023-04-07T07:15:20;8.20;99.90
6270;DHT22;3168;51.684;6.954;2023-04-07T07:17:46;8.20;99.90
6270;DHT22;3168;51.684;6.954;2023-04-07T07:20:12;8.30;99.90
6270;DHT22;3168;51.684;6.954;2023-04-07T07:22:38;8.40;99.90
6270;DHT22;3168;51.684;6.954;2023-04-07T07:25:04;8.40;99.90
6270;DHT22;3168;51.684;6.954;2023-04-07T07:27:30;8.40;99.90
6270;DHT22;3168;51.684;6.954;2023-04-07T07:29:56;8.40;99.90
6270;DHT22;3168;51.684;6.954;2023-04-07T07:32:22;8.30;99.90
6270;DHT22;3168;51.684;6.954;2023-04-07T07:34:47;8.40;99.90
6270;DHT22;3168;51.684;6.954;2023-04-07T07:37:13;8.40;99.90
6270;DHT22;3168;51.684;6.954;2023-04-07T07:39:39;8.20;99.90
6270;DHT22;3168;51.684;6.954;2023-04-07T07:42:05;8.30;99.90
6270;DHT22;3168;51.684;6.954;2023-04-07T07:44:31;8.30;99.90
6270;DHT22;3168;51.684;6.954;2023-04-07T07:46:57;8.50;99.90
6270;DHT22;3168;51.684;6.954;2023-04-07T07:49:22;8.50;99.90
6270;DHT22;3168;51.684;6.954;2023-04-07T07:51:48;8.60;99.90
6270;DHT22;3168;51.684;6.954;2023-04-07T07:54:14;8.60;99.90
6270;DHT22;3168;51.684;6.954;2023-04-07T07:56:40;8.60;99.90
6270;DHT22;3168;51.684;6.954;2023-04-07T07:59:06;8.70;99.90
6270;DHT22;3168;51.684;6.954;2023-04-07T08:01:31;8.80;99.90
6270;DHT22;3168;51.684;6.954;2023-04-07T08:03:57;8.60;99.90
6270;DHT22;3168;51.684;6.954;2023-04-07T08:06:23;8.50;99.90
6270;DHT22;3168;51.684;6.954;2023-04-07T08:08:49;8.70;99.90
6270;DHT22;3168;51.684;6.954;2023-04-07T08:11:15;8.50;99.90
6270;DHT22;3168;51.684;6.954;2023-04-07T08:13:41;8.40;99.90
6270;DHT22;3168;51.684;6.954;2023-04-07T08:16:07;8.40;99.90
6270;DHT22;3168;51.684;6.954;2023-04-07T08:18:33;8.50;99.90
6270;DHT22;3168;51.684;6.954;2023-04-07T08:20:58;8.60;99.90
6270;DHT22;3168;51.684;6.954;2023-04-07T08:23:24;8.60;99.90
6270;DHT22;3168;51.684;6.954;2023-04-07T08:25:50;8.50;99.90
6270;DHT22;3168;51.684;6.954;2023-04-07T08:28:16;8.60;99.90
6270;DHT22;3168;51.684;6.954;2023-04-07T08:30:42;8.80;99.90
6270;DHT22;3168;51.684;6.954;2023-04-07T08:33:08;8.80;99.90
6270;DHT22;3168;51.684;6.954;2023-04-07T08:35:33;8.80;99.90
6270;DHT22;3168;51.684;6.954;2023-04-07T08:37:59;8.80;99.90
6270;DHT22;3168;51.684;6.954;2023-04-07T08:40:25;8.80;99.90
6270;DHT22;3168;51.684;6.954;2023-04-07T08:42:52;8.90;99.90
6270;DHT22;3168;51.684;6.954;2023-04-07T08:45:18;8.90;99.90
6270;DHT22;3168;51.684;6.954;2023-04-07T08:47:43;9.10;99.90
6270;DHT22;3168;51.684;6.954;2023-04-07T08:50:10;9.00;98.70
6270;DHT22;3168;51.684;6.954;2023-04-07T08:52:49;9.00;98.30
6270;DHT22;3168;51.684;6.954;2023-04-07T08:55:15;9.00;98.30
6270;DHT22;3168;51.684;6.954;2023-04-07T08:57:42;9.00;96.20
6270;DHT22;3168;51.684;6.954;2023-04-07T09:00:08;8.90;96.00
6270;DHT22;3168;51.684;6.954;2023-04-07T09:02:36;9.20;96.60
6270;DHT22;3168;51.684;6.954;2023-04-07T09:05:02;9.20;92.80
6270;DHT22;3168;51.684;6.954;2023-04-07T09:07:27;9.10;90.70
6270;DHT22;3168;51.684;6.954;2023-04-07T09:09:53;9.10;92.30
6270;DHT22;3168;51.684;6.954;2023-04-07T09:12:19;9.10;92.80
6270;DHT22;3168;51.684;6.954;2023-04-07T09:14:45;9.20;92.30
6270;DHT22;3168;51.684;6.954;2023-04-07T09:17:11;9.30;90.90
6270;DHT22;3168;51.684;6.954;2023-04-07T09:19:36;9.30;88.00
6270;DHT22;3168;51.684;6.954;2023-04-07T09:22:02;9.30;84.70
6270;DHT22;3168;51.684;6.954;2023-04-07T09:24:28;9.40;87.60
6270;DHT22;3168;51.684;6.954;2023-04-07T09:29:26;9.10;83.70
6270;DHT22;3168;51.684;6.954;2023-04-07T09:31:51;8.90;87.80
6270;DHT22;3168;51.684;6.954;2023-04-07T09:34:24;8.90;91.40
6270;DHT22;3168;51.684;6.954;2023-04-07T09:36:50;9.30;95.10
6270;DHT22;3168;51.684;6.954;2023-04-07T09:39:16;9.30;94.90
6270;DHT22;3168;51.684;6.954;2023-04-07T09:41:42;9.40;93.00
6270;DHT22;3168;51.684;6.954;2023-04-07T09:44:07;9.20;90.40
6270;DHT22;3168;51.684;6.954;2023-04-07T09:46:33;9.10;90.00
6270;DHT22;3168;51.684;6.954;2023-04-07T09:49:00;9.20;90.90
6270;DHT22;3168;51.684;6.954;2023-04-07T09:51:26;9.30;92.30
6270;DHT22;3168;51.684;6.954;2023-04-07T09:53:53;9.40;93.80
6270;DHT22;3168;51.684;6.954;2023-04-07T09:56:19;9.50;93.10
6270;DHT22;3168;51.684;6.954;2023-04-07T09:58:45;9.50;86.30
6270;DHT22;3168;51.684;6.954;2023-04-07T10:01:11;9.50;83.00
6270;DHT22;3168;51.684;6.954;2023-04-07T10:03:37;9.50;77.50
6270;DHT22;3168;51.684;6.954;2023-04-07T10:06:03;9.30;73.00
6270;DHT22;3168;51.684;6.954;2023-04-07T10:08:30;9.50;79.70
6270;DHT22;3168;51.684;6.954;2023-04-07T10:10:55;9.40;70.40
6270;DHT22;3168;51.684;6.954;2023-04-07T10:13:21;9.40;74.90
6270;DHT22;3168;51.684;6.954;2023-04-07T10:15:47;9.40;73.40
6270;DHT22;3168;51.684;6.954;2023-04-07T10:18:13;9.50;75.00
6270;DHT22;3168;51.684;6.954;2023-04-07T10:20:39;9.40;71.90
6270;DHT22;3168;51.684;6.954;2023-04-07T10:23:07;9.30;75.50
6270;DHT22;3168;51.684;6.954;2023-04-07T10:25:30;9.30;81.60
6270;DHT22;3168;51.684;6.954;2023-04-07T10:27:59;9.50;87.20
6270;DHT22;3168;51.684;6.954;2023-04-07T10:30:24;9.40;84.30
6270;DHT22;3168;51.684;6.954;2023-04-07T10:32:50;9.40;86.40
6270;DHT22;3168;51.684;6.954;2023-04-07T10:35:16;9.60;86.00
6270;DHT22;3168;51.684;6.954;2023-04-07T10:38:08;9.60;78.90
6270;DHT22;3168;51.684;6.954;2023-04-07T10:42:58;9.60;69.40
6270;DHT22;3168;51.684;6.954;2023-04-07T10:48:09;9.40;70.10
6270;DHT22;3168;51.684;6.954;2023-04-07T10:50:35;9.30;61.00
6270;DHT22;3168;51.684;6.954;2023-04-07T10:53:06;9.20;62.60
6270;DHT22;3168;51.684;6.954;2023-04-07T10:55:32;9.30;66.50
6270;DHT22;3168;51.684;6.954;2023-04-07T10:58:12;9.30;70.50
6270;DHT22;3168;51.684;6.954;2023-04-07T11:00:37;9.40;70.40
6270;DHT22;3168;51.684;6.954;2023-04-07T11:03:12;9.50;70.50
6270;DHT22;3168;51.684;6.954;2023-04-07T11:05:38;9.60;70.50
6270;DHT22;3168;51.684;6.954;2023-04-07T11:08:03;9.50;76.30
6270;DHT22;3168;51.684;6.954;2023-04-07T11:10:29;9.70;84.10
6270;DHT22;3168;51.684;6.954;2023-04-07T11:12:58;9.70;80.10
6270;DHT22;3168;51.684;6.954;2023-04-07T11:15:23;9.60;79.30
6270;DHT22;3168;51.684;6.954;2023-04-07T11:20:39;9.50;75.50
6270;DHT22;3168;51.684;6.954;2023-04-07T11:22:58;9.30;73.30
6270;DHT22;3168;51.684;6.954;2023-04-07T11:25:23;9.20;76.90
6270;DHT22;3168;51.684;6.954;2023-04-07T11:27:49;9.10;84.40
6270;DHT22;3168;51.684;6.954;2023-04-07T11:30:15;9.10;90.10
6270;DHT22;3168;51.684;6.954;2023-04-07T11:32:41;9.00;90.50
6270;DHT22;3168;51.684;6.954;2023-04-07T11:35:08;9.00;90.50
6270;DHT22;3168;51.684;6.954;2023-04-07T11:37:34;9.00;90.30
6270;DHT22;3168;51.684;6.954;2023-04-07T11:40:00;9.00;90.90
6270;DHT22;3168;51.684;6.954;2023-04-07T11:42:34;9.00;91.80
6270;DHT22;3168;51.684;6.954;2023-04-07T11:45:00;8.80;91.80
6270;DHT22;3168;51.684;6.954;2023-04-07T11:47:35;8.70;90.70
6270;DHT22;3168;51.684;6.954;2023-04-07T11:50:00;8.60;91.90
6270;DHT22;3168;51.684;6.954;2023-04-07T11:52:26;8.70;94.60
6270;DHT22;3168;51.684;6.954;2023-04-07T11:54:52;8.80;96.60
6270;DHT22;3168;51.684;6.954;2023-04-07T11:57:29;8.90;98.20
6270;DHT22;3168;51.684;6.954;2023-04-07T12:00:06;9.10;96.50
6270;DHT22;3168;51.684;6.954;2023-04-07T12:02:33;9.10;94.00
6270;DHT22;3168;51.684;6.954;2023-04-07T12:04:58;9.10;93.90
6270;DHT22;3168;51.684;6.954;2023-04-07T12:07:24;9.10;90.70
6270;DHT22;3168;51.684;6.954;2023-04-07T12:09:50;9.10;87.20
6270;DHT22;3168;51.684;6.954;2023-04-07T12:12:23;9.10;86.20
6270;DHT22;3168;51.684;6.954;2023-04-07T12:14:41;9.20;83.80
6270;DHT22;3168;51.684;6.954;2023-04-07T12:17:13;9.30;80.20
6270;DHT22;3168;51.684;6.954;2023-04-07T12:19:33;9.20;70.50
6270;DHT22;3168;51.684;6.954;2023-04-07T12:21:59;9.10;70.20
6270;DHT22;3168;51.684;6.954;2023-04-07T12:24:25;9.20;74.50
6270;DHT22;3168;51.684;6.954;2023-04-07T12:26:51;9.20;69.90
6270;DHT22;3168;51.684;6.954;2023-04-07T12:29:16;9.20;65.90
6270;DHT22;3168;51.684;6.954;2023-04-07T12:31:42;9.30;64.90
6270;DHT22;3168;51.684;6.954;2023-04-07T12:34:08;9.20;59.90
6270;DHT22;3168;51.684;6.954;2023-04-07T12:36:34;9.30;60.80
6270;DHT22;3168;51.684;6.954;2023-04-07T12:39:00;9.30;57.10
6270;DHT22;3168;51.684;6.954;2023-04-07T12:41:26;9.30;57.90
6270;DHT22;3168;51.684;6.954;2023-04-07T12:43:52;9.30;53.80
6270;DHT22;3168;51.684;6.954;2023-04-07T12:46:17;9.40;56.90
6270;DHT22;3168;51.684;6.954;2023-04-07T12:48:43;9.40;56.60
6270;DHT22;3168;51.684;6.954;2023-04-07T12:51:09;9.40;56.80
6270;DHT22;3168;51.684;6.954;2023-04-07T12:53:35;9.40;54.80
6270;DHT22;3168;51.684;6.954;2023-04-07T12:56:01;9.40;52.80
6270;DHT22;3168;51.684;6.954;2023-04-07T12:58:27;9.30;52.10
6270;DHT22;3168;51.684;6.954;2023-04-07T13:00:52;9.40;52.30
6270;DHT22;3168;51.684;6.954;2023-04-07T13:03:18;9.40;51.30
6270;DHT22;3168;51.684;6.954;2023-04-07T13:05:44;9.40;50.50
6270;DHT22;3168;51.684;6.954;2023-04-07T13:08:10;9.40;49.80
6270;DHT22;3168;51.684;6.954;2023-04-07T13:10:36;9.40;46.40
6270;DHT22;3168;51.684;6.954;2023-04-07T13:13:02;9.50;44.30
6270;DHT22;3168;51.684;6.954;2023-04-07T13:15:28;9.50;43.50
6270;DHT22;3168;51.684;6.954;2023-04-07T13:17:53;9.60;42.60
6270;DHT22;3168;51.684;6.954;2023-04-07T13:20:20;9.70;41.80
6270;DHT22;3168;51.684;6.954;2023-04-07T13:22:45;9.70;33.80
6270;DHT22;3168;51.684;6.954;2023-04-07T13:25:12;9.70;28.90
6270;DHT22;3168;51.684;6.954;2023-04-07T13:27:37;9.60;27.60
6270;DHT22;3168;51.684;6.954;2023-04-07T13:30:04;9.60;28.90
6270;DHT22;3168;51.684;6.954;2023-04-07T13:32:31;9.70;30.50
6270;DHT22;3168;51.684;6.954;2023-04-07T13:34:57;9.70;28.90
6270;DHT22;3168;51.684;6.954;2023-04-07T13:37:23;9.70;28.70
6270;DHT22;3168;51.684;6.954;2023-04-07T13:39:49;9.80;21.90
6270;DHT22;3168;51.684;6.954;2023-04-07T13:42:15;9.70;20.60
6270;DHT22;3168;51.684;6.954;2023-04-07T13:44:41;9.70;23.40
6270;DHT22;3168;51.684;6.954;2023-04-07T13:47:08;9.70;25.50
6270;DHT22;3168;51.684;6.954;2023-04-07T13:49:34;9.70;25.50
6270;DHT22;3168;51.684;6.954;2023-04-07T13:52:00;9.70;25.00
6270;DHT22;3168;51.684;6.954;2023-04-07T13:54:25;9.70;20.90
6270;DHT22;3168;51.684;6.954;2023-04-07T13:56:51;9.70;20.60
6270;DHT22;3168;51.684;6.954;2023-04-07T13:59:17;9.70;16.90
6270;DHT22;3168;51.684;6.954;2023-04-07T14:01:43;9.60;17.70
6270;DHT22;3168;51.684;6.954;2023-04-07T14:04:09;9.70;20.50
6270;DHT22;3168;51.684;6.954;2023-04-07T14:06:34;9.70;20.30
6270;DHT22;3168;51.684;6.954;2023-04-07T14:09:00;9.80;18.40
6270;DHT22;3168;51.684;6.954;2023-04-07T14:11:26;9.90;21.30
6270;DHT22;3168;51.684;6.954;2023-04-07T14:13:53;9.90;15.80
6270;DHT22;3168;51.684;6.954;2023-04-07T14:16:19;10.00;14.40
6270;DHT22;3168;51.684;6.954;2023-04-07T14:18:44;10.00;13.90
6270;DHT22;3168;51.684;6.954;2023-04-07T14:21:10;10.00;8.20
6270;DHT22;3168;51.684;6.954;2023-04-07T14:23:36;9.90;9.80
6270;DHT22;3168;51.684;6.954;2023-04-07T14:26:02;9.80;10.90
6270;DHT22;3168;51.684;6.954;2023-04-07T14:28:28;9.70;13.70
6270;DHT22;3168;51.684;6.954;2023-04-07T14:30:54;9.70;19.20
6270;DHT22;3168;51.684;6.954;2023-04-07T14:33:20;9.70;21.90
6270;DHT22;3168;51.684;6.954;2023-04-07T14:35:46;9.70;25.90
6270;DHT22;3168;51.684;6.954;2023-04-07T14:38:12;9.70;17.90
6270;DHT22;3168;51.684;6.954;2023-04-07T14:40:38;9.70;22.00
6270;DHT22;3168;51.684;6.954;2023-04-07T14:43:03;9.60;22.20
6270;DHT22;3168;51.684;6.954;2023-04-07T14:45:29;9.60;23.80
6270;DHT22;3168;51.684;6.954;2023-04-07T14:47:55;9.70;21.90
6270;DHT22;3168;51.684;6.954;2023-04-07T14:50:21;9.70;20.90
6270;DHT22;3168;51.684;6.954;2023-04-07T14:52:48;9.70;19.90
6270;DHT22;3168;51.684;6.954;2023-04-07T14:55:13;9.70;20.00
6270;DHT22;3168;51.684;6.954;2023-04-07T14:57:39;9.80;13.20
6270;DHT22;3168;51.684;6.954;2023-04-07T15:00:06;9.80;7.40
6270;DHT22;3168;51.684;6.954;2023-04-07T15:02:32;9.70;9.10
6270;DHT22;3168;51.684;6.954;2023-04-07T15:04:58;9.60;11.60
6270;DHT22;3168;51.684;6.954;2023-04-07T15:07:24;9.60;11.80
6270;DHT22;3168;51.684;6.954;2023-04-07T15:09:49;9.60;14.40
6270;DHT22;3168;51.684;6.954;2023-04-07T15:12:15;9.60;13.70
6270;DHT22;3168;51.684;6.954;2023-04-07T15:14:41;9.50;17.60
6270;DHT22;3168;51.684;6.954;2023-04-07T15:17:07;9.50;17.70
6270;DHT22;3168;51.684;6.954;2023-04-07T15:19:33;9.60;17.70
6270;DHT22;3168;51.684;6.954;2023-04-07T15:21:58;9.50;17.80
6270;DHT22;3168;51.684;6.954;2023-04-07T15:24:24;9.50;17.30
6270;DHT22;3168;51.684;6.954;2023-04-07T15:26:50;9.50;17.30
6270;DHT22;3168;51.684;6.954;2023-04-07T15:29:16;9.60;16.70
6270;DHT22;3168;51.684;6.954;2023-04-07T15:31:42;9.60;15.90
6270;DHT22;3168;51.684;6.954;2023-04-07T15:34:08;9.50;16.90
6270;DHT22;3168;51.684;6.954;2023-04-07T15:36:33;9.40;16.70
6270;DHT22;3168;51.684;6.954;2023-04-07T15:39:01;9.30;17.50
6270;DHT22;3168;51.684;6.954;2023-04-07T15:41:25;9.40;20.20
6270;DHT22;3168;51.684;6.954;2023-04-07T15:43:51;9.40;23.90
6270;DHT22;3168;51.684;6.954;2023-04-07T15:46:17;9.30;27.00
6270;DHT22;3168;51.684;6.954;2023-04-07T15:48:43;9.30;27.30
6270;DHT22;3168;51.684;6.954;2023-04-07T15:51:09;9.30;28.00
6270;DHT22;3168;51.684;6.954;2023-04-07T15:53:34;9.30;25.40
6270;DHT22;3168;51.684;6.954;2023-04-07T15:56:00;9.30;22.50
6270;DHT22;3168;51.684;6.954;2023-04-07T15:58:26;9.30;21.60
6270;DHT22;3168;51.684;6.954;2023-04-07T16:00:52;9.30;23.40
6270;DHT22;3168;51.684;6.954;2023-04-07T16:03:18;9.30;25.30
6270;DHT22;3168;51.684;6.954;2023-04-07T16:05:44;9.20;28.80
6270;DHT22;3168;51.684;6.954;2023-04-07T16:08:10;9.30;30.40
6270;DHT22;3168;51.684;6.954;2023-04-07T16:10:35;9.20;28.80
6270;DHT22;3168;51.684;6.954;2023-04-07T16:13:02;9.20;27.80
6270;DHT22;3168;51.684;6.954;2023-04-07T16:15:29;9.20;26.40
6270;DHT22;3168;51.684;6.954;2023-04-07T16:17:54;9.20;26.20
6270;DHT22;3168;51.684;6.954;2023-04-07T16:20:20;9.20;25.30